Tuesday, April 24, 2018, 4:23 AM EDT
Back to Local

KBOS, Boston Logan International

Location: Boston, MA, United States Lat: 42.367
Local Time: 4:23 AM EDT ( 8:23 GMT) Lon: -71.017
Time Zone: US/Eastern Elev: 19 ft

Show me the last for .
Show Coded

Time T Td Feel RH Dir Speed Gust Alt SLP Vis Weather Sky Remarks
2018-04-24 03:54 43 30 39 59 230° 7 - 30.41 30.40 10 CLR None
2018-04-24 02:54 44 28 39 53 220° 10 - 30.41 30.41 10 CLR None
2018-04-24 01:54 45 26 41 47 210° 8 - 30.42 30.41 10 CLR 6-hr Min Temp (2am): 45.0°F
6-hr Max Temp (2am): 53.1°F
2018-04-24 00:54 47 23 41 38 220° 13 - 30.43 30.43 10 CLR 24-hr Min Temp (1am): 43.0°F
24-hr Max Temp (1am): 57.9°F
2018-04-23 23:54 46 21 40 36 210° 13 - 30.44 30.43 10 CLR None
2018-04-23 22:54 48 22 43 35 200° 10 - 30.44 30.44 10 CLR None
2018-04-23 21:54 49 24 44 37 200° 13 - 30.44 30.44 10 CLR None
2018-04-23 20:54 51 25 - 35 200° 13 - 30.45 30.45 10 FEW250 None
2018-04-23 19:54 53 28 - 37 180° 13 - 30.43 30.42 10 FEW250 6-hr Min Temp (8pm): 50.0°F
6-hr Max Temp (8pm): 55.9°F
2018-04-23 18:54 52 32 - 46 130° 13 - 30.42 30.42 10 FEW250 None
2018-04-23 17:54 52 32 - 46 110° 14 - 30.42 30.42 10 FEW250 None
2018-04-23 16:54 54 28 - 36 110° 15 - 30.43 30.42 10 FEW140 None
2018-04-23 15:54 53 28 - 37 110° 16 - 30.44 30.43 10 FEW140 None
2018-04-23 14:54 54 28 - 36 110° 15 - 30.45 30.45 10 FEW300 None
2018-04-23 13:54 56 22 - 26 80° 13 - 30.47 30.46 10 FEW300 6-hr Min Temp (2pm): 48.9°F
6-hr Max Temp (2pm): 57.9°F
2018-04-23 12:54 56 21 - 25 110° 13 - 30.48 30.48 10 FEW300 None
2018-04-23 11:54 55 22 - 27 120° 12 - 30.49 30.49 10 FEW300 None
2018-04-23 10:54 54 21 - 27 120° 10 - 30.51 30.50 10 CLR None
2018-04-23 09:54 52 21 - 29 140° 7 - 30.51 30.50 10 CLR None
2018-04-23 08:54 52 20 - 28 10° 3 - 30.50 30.50 10 CLR None
2018-04-23 07:54 49 21 47 32 330° 5 - 30.49 30.49 10 CLR 6-hr Min Temp (8am): 43.0°F
6-hr Max Temp (8am): 48.9°F
2018-04-23 06:54 46 20 42 35 320° 8 - 30.48 30.48 10 CLR None
2018-04-23 05:54 44 20 41 37 320° 6 - 30.46 30.45 10 CLR None
2018-04-23 04:54 45 20 42 36 310° 6 - 30.44 30.44 10 CLR None

Support USWX by starting your Amazon purchase here.